sensor_id;sensor_type;location;lat;lon;timestamp;temperature;humidity
20650;DHT22;10484;48.736;9.332;2023-02-02T00:01:53;6.00;1.00
20650;DHT22;10484;48.736;9.332;2023-02-02T00:04:24;6.00;1.00
20650;DHT22;10484;48.736;9.332;2023-02-02T00:06:50;6.00;1.00
20650;DHT22;10484;48.736;9.332;2023-02-02T00:09:17;6.00;1.00
20650;DHT22;10484;48.736;9.332;2023-02-02T00:11:45;6.00;1.00
20650;DHT22;10484;48.736;9.332;2023-02-02T00:14:11;5.90;1.00
20650;DHT22;10484;48.736;9.332;2023-02-02T00:16:40;6.00;1.00
20650;DHT22;10484;48.736;9.332;2023-02-02T00:19:12;6.00;1.00
20650;DHT22;10484;48.736;9.332;2023-02-02T00:21:39;6.00;1.00
20650;DHT22;10484;48.736;9.332;2023-02-02T00:24:06;6.00;1.00
20650;DHT22;10484;48.736;9.332;2023-02-02T00:26:33;6.00;1.00
20650;DHT22;10484;48.736;9.332;2023-02-02T00:28:58;6.00;1.00
20650;DHT22;10484;48.736;9.332;2023-02-02T00:31:24;6.00;1.00
20650;DHT22;10484;48.736;9.332;2023-02-02T00:33:50;6.00;1.00
20650;DHT22;10484;48.736;9.332;2023-02-02T00:36:17;6.00;1.00
20650;DHT22;10484;48.736;9.332;2023-02-02T00:38:44;5.90;1.00
20650;DHT22;10484;48.736;9.332;2023-02-02T00:41:10;5.90;1.00
20650;DHT22;10484;48.736;9.332;2023-02-02T00:43:35;5.90;1.00
20650;DHT22;10484;48.736;9.332;2023-02-02T00:46:01;6.00;1.00
20650;DHT22;10484;48.736;9.332;2023-02-02T00:48:27;6.00;1.00
20650;DHT22;10484;48.736;9.332;2023-02-02T00:50:52;6.00;1.00
20650;DHT22;10484;48.736;9.332;2023-02-02T00:53:19;6.00;1.00
20650;DHT22;10484;48.736;9.332;2023-02-02T00:55:44;5.90;1.00
20650;DHT22;10484;48.736;9.332;2023-02-02T00:58:10;5.90;1.00
20650;DHT22;10484;48.736;9.332;2023-02-02T01:00:35;6.00;1.00
20650;DHT22;10484;48.736;9.332;2023-02-02T01:03:02;5.90;1.00
20650;DHT22;10484;48.736;9.332;2023-02-02T01:05:32;5.90;1.00
20650;DHT22;10484;48.736;9.332;2023-02-02T01:07:59;6.00;1.00
20650;DHT22;10484;48.736;9.332;2023-02-02T01:10:24;5.90;1.00
20650;DHT22;10484;48.736;9.332;2023-02-02T01:12:50;6.00;1.00
20650;DHT22;10484;48.736;9.332;2023-02-02T01:15:16;6.00;1.00
20650;DHT22;10484;48.736;9.332;2023-02-02T01:17:42;5.90;1.00
20650;DHT22;10484;48.736;9.332;2023-02-02T01:20:10;5.90;1.00
20650;DHT22;10484;48.736;9.332;2023-02-02T01:22:39;6.00;1.00
20650;DHT22;10484;48.736;9.332;2023-02-02T01:25:05;6.00;1.00
20650;DHT22;10484;48.736;9.332;2023-02-02T01:27:31;5.90;1.00
20650;DHT22;10484;48.736;9.332;2023-02-02T01:29:56;6.00;1.00
20650;DHT22;10484;48.736;9.332;2023-02-02T01:32:22;6.00;1.00
20650;DHT22;10484;48.736;9.332;2023-02-02T01:34:47;6.00;1.00
20650;DHT22;10484;48.736;9.332;2023-02-02T01:37:38;6.00;1.00
20650;DHT22;10484;48.736;9.332;2023-02-02T01:40:04;5.90;1.00
20650;DHT22;10484;48.736;9.332;2023-02-02T01:42:30;5.90;1.00
20650;DHT22;10484;48.736;9.332;2023-02-02T01:45:20;6.00;1.00
20650;DHT22;10484;48.736;9.332;2023-02-02T01:47:56;5.90;1.00
20650;DHT22;10484;48.736;9.332;2023-02-02T01:50:27;5.90;1.00
20650;DHT22;10484;48.736;9.332;2023-02-02T01:52:56;5.90;1.00
20650;DHT22;10484;48.736;9.332;2023-02-02T01:55:24;5.90;1.00
20650;DHT22;10484;48.736;9.332;2023-02-02T01:57:58;5.90;1.00
20650;DHT22;10484;48.736;9.332;2023-02-02T02:00:24;5.90;1.00
20650;DHT22;10484;48.736;9.332;2023-02-02T02:02:55;5.90;1.00
20650;DHT22;10484;48.736;9.332;2023-02-02T02:05:30;5.90;1.00
20650;DHT22;10484;48.736;9.332;2023-02-02T02:08:04;5.90;1.00
20650;DHT22;10484;48.736;9.332;2023-02-02T02:10:32;5.90;1.00
20650;DHT22;10484;48.736;9.332;2023-02-02T02:12:59;5.90;1.00
20650;DHT22;10484;48.736;9.332;2023-02-02T02:15:26;5.90;1.00
20650;DHT22;10484;48.736;9.332;2023-02-02T02:41:08;5.90;1.00
20650;DHT22;10484;48.736;9.332;2023-02-02T02:43:40;5.90;1.00
20650;DHT22;10484;48.736;9.332;2023-02-02T02:46:07;5.90;1.00
20650;DHT22;10484;48.736;9.332;2023-02-02T02:48:34;5.90;1.00
20650;DHT22;10484;48.736;9.332;2023-02-02T02:51:08;5.90;1.00
20650;DHT22;10484;48.736;9.332;2023-02-02T02:53:34;5.90;1.00
20650;DHT22;10484;48.736;9.332;2023-02-02T02:56:12;5.90;1.00
20650;DHT22;10484;48.736;9.332;2023-02-02T02:58:47;5.90;1.00
20650;DHT22;10484;48.736;9.332;2023-02-02T03:01:32;5.90;1.00
20650;DHT22;10484;48.736;9.332;2023-02-02T03:04:21;5.90;1.00
20650;DHT22;10484;48.736;9.332;2023-02-02T03:06:59;5.90;1.00
20650;DHT22;10484;48.736;9.332;2023-02-02T03:09:29;5.90;1.00
20650;DHT22;10484;48.736;9.332;2023-02-02T03:11:59;5.90;1.00
20650;DHT22;10484;48.736;9.332;2023-02-02T03:14:25;5.90;1.00
20650;DHT22;10484;48.736;9.332;2023-02-02T03:16:51;6.00;1.00
20650;DHT22;10484;48.736;9.332;2023-02-02T03:19:17;6.00;1.00
20650;DHT22;10484;48.736;9.332;2023-02-02T03:21:43;6.00;1.00
20650;DHT22;10484;48.736;9.332;2023-02-02T03:24:09;6.00;1.00
20650;DHT22;10484;48.736;9.332;2023-02-02T03:26:35;6.00;1.00
20650;DHT22;10484;48.736;9.332;2023-02-02T03:29:01;6.10;1.00
20650;DHT22;10484;48.736;9.332;2023-02-02T03:31:28;6.10;1.00
20650;DHT22;10484;48.736;9.332;2023-02-02T03:33:54;6.10;1.00
20650;DHT22;10484;48.736;9.332;2023-02-02T03:36:20;6.10;1.00
20650;DHT22;10484;48.736;9.332;2023-02-02T03:38:46;6.10;1.00
20650;DHT22;10484;48.736;9.332;2023-02-02T03:41:12;6.10;1.00
20650;DHT22;10484;48.736;9.332;2023-02-02T03:43:37;6.10;1.00
20650;DHT22;10484;48.736;9.332;2023-02-02T03:46:04;6.10;1.00
20650;DHT22;10484;48.736;9.332;2023-02-02T03:48:30;6.10;1.00
20650;DHT22;10484;48.736;9.332;2023-02-02T03:50:56;6.10;1.00
20650;DHT22;10484;48.736;9.332;2023-02-02T03:53:22;6.10;1.00
20650;DHT22;10484;48.736;9.332;2023-02-02T03:55:48;6.10;1.00
20650;DHT22;10484;48.736;9.332;2023-02-02T03:58:14;6.10;1.00
20650;DHT22;10484;48.736;9.332;2023-02-02T04:00:39;6.10;1.00
20650;DHT22;10484;48.736;9.332;2023-02-02T04:03:05;6.10;1.00
20650;DHT22;10484;48.736;9.332;2023-02-02T04:05:31;6.10;1.00
20650;DHT22;10484;48.736;9.332;2023-02-02T04:07:57;6.20;1.00
20650;DHT22;10484;48.736;9.332;2023-02-02T04:10:22;6.20;1.00
20650;DHT22;10484;48.736;9.332;2023-02-02T04:12:48;6.20;1.00
20650;DHT22;10484;48.736;9.332;2023-02-02T04:15:15;6.20;1.00
20650;DHT22;10484;48.736;9.332;2023-02-02T04:17:40;6.20;1.00
20650;DHT22;10484;48.736;9.332;2023-02-02T04:20:06;6.20;1.00
20650;DHT22;10484;48.736;9.332;2023-02-02T04:22:33;6.20;1.00
20650;DHT22;10484;48.736;9.332;2023-02-02T04:24:58;6.20;1.00
20650;DHT22;10484;48.736;9.332;2023-02-02T04:27:24;6.20;1.00
20650;DHT22;10484;48.736;9.332;2023-02-02T04:29:50;6.20;1.00
20650;DHT22;10484;48.736;9.332;2023-02-02T04:32:16;6.20;1.00
20650;DHT22;10484;48.736;9.332;2023-02-02T04:34:42;6.20;1.00
20650;DHT22;10484;48.736;9.332;2023-02-02T04:37:09;6.20;1.00
20650;DHT22;10484;48.736;9.332;2023-02-02T04:39:34;6.20;1.00
20650;DHT22;10484;48.736;9.332;2023-02-02T04:42:00;6.20;1.00
20650;DHT22;10484;48.736;9.332;2023-02-02T04:44:26;6.30;1.00
20650;DHT22;10484;48.736;9.332;2023-02-02T04:46:51;6.20;1.00
20650;DHT22;10484;48.736;9.332;2023-02-02T04:49:17;6.20;1.00
20650;DHT22;10484;48.736;9.332;2023-02-02T04:51:43;6.20;1.00
20650;DHT22;10484;48.736;9.332;2023-02-02T04:54:08;6.20;1.00
20650;DHT22;10484;48.736;9.332;2023-02-02T04:56:34;6.30;1.00
20650;DHT22;10484;48.736;9.332;2023-02-02T04:59:00;6.30;1.00
20650;DHT22;10484;48.736;9.332;2023-02-02T05:01:26;6.30;1.00
20650;DHT22;10484;48.736;9.332;2023-02-02T05:03:53;6.30;1.00
20650;DHT22;10484;48.736;9.332;2023-02-02T05:06:19;6.30;1.00
20650;DHT22;10484;48.736;9.332;2023-02-02T05:08:46;6.30;1.00
20650;DHT22;10484;48.736;9.332;2023-02-02T05:11:15;6.30;1.00
20650;DHT22;10484;48.736;9.332;2023-02-02T05:13:49;6.30;1.00
20650;DHT22;10484;48.736;9.332;2023-02-02T05:16:15;6.30;1.00
20650;DHT22;10484;48.736;9.332;2023-02-02T05:18:41;6.30;1.00
20650;DHT22;10484;48.736;9.332;2023-02-02T05:21:08;6.30;1.00
20650;DHT22;10484;48.736;9.332;2023-02-02T05:23:34;6.30;1.00
20650;DHT22;10484;48.736;9.332;2023-02-02T05:25:59;6.30;1.00
20650;DHT22;10484;48.736;9.332;2023-02-02T05:28:25;6.30;1.00
20650;DHT22;10484;48.736;9.332;2023-02-02T05:30:51;6.30;1.00
20650;DHT22;10484;48.736;9.332;2023-02-02T05:33:17;6.30;1.00
20650;DHT22;10484;48.736;9.332;2023-02-02T05:35:45;6.30;1.00
20650;DHT22;10484;48.736;9.332;2023-02-02T05:38:11;6.30;1.00
20650;DHT22;10484;48.736;9.332;2023-02-02T05:40:36;6.30;1.00
20650;DHT22;10484;48.736;9.332;2023-02-02T05:43:02;6.30;1.00
20650;DHT22;10484;48.736;9.332;2023-02-02T05:45:27;6.30;1.00
20650;DHT22;10484;48.736;9.332;2023-02-02T05:47:53;6.30;1.00
20650;DHT22;10484;48.736;9.332;2023-02-02T05:50:20;6.30;1.00
20650;DHT22;10484;48.736;9.332;2023-02-02T05:52:47;6.30;1.00
20650;DHT22;10484;48.736;9.332;2023-02-02T05:55:13;6.30;1.00
20650;DHT22;10484;48.736;9.332;2023-02-02T05:57:38;6.30;1.00
20650;DHT22;10484;48.736;9.332;2023-02-02T06:00:05;6.30;1.00
20650;DHT22;10484;48.736;9.332;2023-02-02T06:02:31;6.30;1.00
20650;DHT22;10484;48.736;9.332;2023-02-02T06:04:57;6.30;1.00
20650;DHT22;10484;48.736;9.332;2023-02-02T06:07:22;6.30;1.00
20650;DHT22;10484;48.736;9.332;2023-02-02T06:09:48;6.30;1.00
20650;DHT22;10484;48.736;9.332;2023-02-02T06:12:13;6.40;1.00
20650;DHT22;10484;48.736;9.332;2023-02-02T06:14:39;6.30;1.00
20650;DHT22;10484;48.736;9.332;2023-02-02T06:17:04;6.40;1.00
20650;DHT22;10484;48.736;9.332;2023-02-02T06:19:31;6.40;1.00
20650;DHT22;10484;48.736;9.332;2023-02-02T06:21:57;6.50;1.00
20650;DHT22;10484;48.736;9.332;2023-02-02T06:24:22;6.40;1.00
20650;DHT22;10484;48.736;9.332;2023-02-02T06:26:49;6.40;1.00
20650;DHT22;10484;48.736;9.332;2023-02-02T06:29:14;6.40;1.00
20650;DHT22;10484;48.736;9.332;2023-02-02T06:31:40;6.40;1.00
20650;DHT22;10484;48.736;9.332;2023-02-02T06:34:06;6.40;1.00
20650;DHT22;10484;48.736;9.332;2023-02-02T06:36:32;6.40;1.00
20650;DHT22;10484;48.736;9.332;2023-02-02T06:38:58;6.40;1.00
20650;DHT22;10484;48.736;9.332;2023-02-02T06:41:24;6.40;1.00
20650;DHT22;10484;48.736;9.332;2023-02-02T06:43:50;6.40;1.00
20650;DHT22;10484;48.736;9.332;2023-02-02T06:46:16;6.30;1.00
20650;DHT22;10484;48.736;9.332;2023-02-02T06:48:41;6.30;1.00
20650;DHT22;10484;48.736;9.332;2023-02-02T06:51:07;6.40;1.00
20650;DHT22;10484;48.736;9.332;2023-02-02T06:53:33;6.40;1.00
20650;DHT22;10484;48.736;9.332;2023-02-02T06:56:01;6.40;1.00
20650;DHT22;10484;48.736;9.332;2023-02-02T06:58:28;6.30;1.00
20650;DHT22;10484;48.736;9.332;2023-02-02T07:00:53;6.30;1.00
20650;DHT22;10484;48.736;9.332;2023-02-02T07:03:20;6.30;1.00
20650;DHT22;10484;48.736;9.332;2023-02-02T07:05:49;6.30;1.00
20650;DHT22;10484;48.736;9.332;2023-02-02T07:08:15;6.30;1.00
20650;DHT22;10484;48.736;9.332;2023-02-02T07:10:41;6.30;1.00
20650;DHT22;10484;48.736;9.332;2023-02-02T07:13:08;6.30;1.00
20650;DHT22;10484;48.736;9.332;2023-02-02T07:15:34;6.30;1.00
20650;DHT22;10484;48.736;9.332;2023-02-02T07:18:00;6.30;1.00
20650;DHT22;10484;48.736;9.332;2023-02-02T07:20:26;6.30;1.00
20650;DHT22;10484;48.736;9.332;2023-02-02T07:22:52;6.30;1.00
20650;DHT22;10484;48.736;9.332;2023-02-02T07:25:17;6.30;1.00
20650;DHT22;10484;48.736;9.332;2023-02-02T07:27:43;6.20;1.00
20650;DHT22;10484;48.736;9.332;2023-02-02T07:30:09;6.20;1.00
20650;DHT22;10484;48.736;9.332;2023-02-02T07:32:35;6.20;1.00
20650;DHT22;10484;48.736;9.332;2023-02-02T07:35:00;6.20;1.00
20650;DHT22;10484;48.736;9.332;2023-02-02T07:37:26;6.20;1.00
20650;DHT22;10484;48.736;9.332;2023-02-02T07:39:51;6.20;1.00
20650;DHT22;10484;48.736;9.332;2023-02-02T07:42:17;6.20;1.00
20650;DHT22;10484;48.736;9.332;2023-02-02T07:44:43;6.20;1.00
20650;DHT22;10484;48.736;9.332;2023-02-02T07:47:08;6.20;1.00
20650;DHT22;10484;48.736;9.332;2023-02-02T07:49:34;6.20;1.00
20650;DHT22;10484;48.736;9.332;2023-02-02T07:52:00;6.20;1.00
20650;DHT22;10484;48.736;9.332;2023-02-02T07:54:25;6.20;1.00
20650;DHT22;10484;48.736;9.332;2023-02-02T07:56:51;6.20;1.00
20650;DHT22;10484;48.736;9.332;2023-02-02T07:59:16;6.20;1.00
20650;DHT22;10484;48.736;9.332;2023-02-02T08:01:42;6.20;1.00
20650;DHT22;10484;48.736;9.332;2023-02-02T08:04:08;6.20;1.00
20650;DHT22;10484;48.736;9.332;2023-02-02T08:06:36;6.20;1.00
20650;DHT22;10484;48.736;9.332;2023-02-02T08:09:04;6.20;1.00
20650;DHT22;10484;48.736;9.332;2023-02-02T08:11:32;6.20;1.00
20650;DHT22;10484;48.736;9.332;2023-02-02T08:13:59;6.20;1.00
20650;DHT22;10484;48.736;9.332;2023-02-02T08:16:26;6.20;1.00
20650;DHT22;10484;48.736;9.332;2023-02-02T08:18:52;6.20;1.00
20650;DHT22;10484;48.736;9.332;2023-02-02T08:21:20;6.20;1.00
20650;DHT22;10484;48.736;9.332;2023-02-02T08:23:46;6.10;1.00
20650;DHT22;10484;48.736;9.332;2023-02-02T08:26:20;6.10;1.00
20650;DHT22;10484;48.736;9.332;2023-02-02T08:28:50;6.10;1.00
20650;DHT22;10484;48.736;9.332;2023-02-02T08:31:19;6.10;1.00
20650;DHT22;10484;48.736;9.332;2023-02-02T08:33:46;6.10;1.00
20650;DHT22;10484;48.736;9.332;2023-02-02T08:36:17;6.20;1.00
20650;DHT22;10484;48.736;9.332;2023-02-02T08:38:43;6.20;1.00
20650;DHT22;10484;48.736;9.332;2023-02-02T08:41:11;6.20;1.00
20650;DHT22;10484;48.736;9.332;2023-02-02T08:43:38;6.20;1.00
20650;DHT22;10484;48.736;9.332;2023-02-02T08:46:04;6.20;1.00
20650;DHT22;10484;48.736;9.332;2023-02-02T08:48:30;6.20;1.00
20650;DHT22;10484;48.736;9.332;2023-02-02T08:50:57;6.20;1.00
20650;DHT22;10484;48.736;9.332;2023-02-02T08:53:24;6.30;1.00
20650;DHT22;10484;48.736;9.332;2023-02-02T08:56:01;6.30;1.00
20650;DHT22;10484;48.736;9.332;2023-02-02T08:58:28;6.30;1.00
20650;DHT22;10484;48.736;9.332;2023-02-02T09:00:54;6.30;1.00
20650;DHT22;10484;48.736;9.332;2023-02-02T09:03:20;6.30;1.00
20650;DHT22;10484;48.736;9.332;2023-02-02T09:05:46;6.30;1.00
20650;DHT22;10484;48.736;9.332;2023-02-02T09:08:11;6.30;1.00
20650;DHT22;10484;48.736;9.332;2023-02-02T09:10:37;6.30;1.00
20650;DHT22;10484;48.736;9.332;2023-02-02T09:13:03;6.30;1.00
20650;DHT22;10484;48.736;9.332;2023-02-02T09:15:29;6.30;1.00
20650;DHT22;10484;48.736;9.332;2023-02-02T09:17:55;6.40;1.00
20650;DHT22;10484;48.736;9.332;2023-02-02T09:20:21;6.40;1.00
20650;DHT22;10484;48.736;9.332;2023-02-02T09:22:47;6.40;1.00
20650;DHT22;10484;48.736;9.332;2023-02-02T09:25:13;6.40;1.00
20650;DHT22;10484;48.736;9.332;2023-02-02T09:27:39;6.40;1.00
20650;DHT22;10484;48.736;9.332;2023-02-02T09:30:06;6.40;1.00
20650;DHT22;10484;48.736;9.332;2023-02-02T09:32:33;6.40;1.00
20650;DHT22;10484;48.736;9.332;2023-02-02T09:34:58;6.40;1.00
20650;DHT22;10484;48.736;9.332;2023-02-02T09:37:25;6.40;1.00
20650;DHT22;10484;48.736;9.332;2023-02-02T09:39:51;6.40;1.00
20650;DHT22;10484;48.736;9.332;2023-02-02T09:42:43;6.40;1.00
20650;DHT22;10484;48.736;9.332;2023-02-02T09:45:24;6.50;1.00
20650;DHT22;10484;48.736;9.332;2023-02-02T09:48:17;6.40;1.00
20650;DHT22;10484;48.736;9.332;2023-02-02T09:50:46;6.50;1.00
20650;DHT22;10484;48.736;9.332;2023-02-02T09:53:19;6.50;1.00
20650;DHT22;10484;48.736;9.332;2023-02-02T09:55:47;6.50;1.00
20650;DHT22;10484;48.736;9.332;2023-02-02T09:58:31;6.50;1.00
20650;DHT22;10484;48.736;9.332;2023-02-02T10:01:25;6.50;1.00
20650;DHT22;10484;48.736;9.332;2023-02-02T10:06:57;6.50;1.00
20650;DHT22;10484;48.736;9.332;2023-02-02T10:14:41;6.60;1.00
20650;DHT22;10484;48.736;9.332;2023-02-02T10:19:57;6.60;1.00
20650;DHT22;10484;48.736;9.332;2023-02-02T10:22:27;6.70;1.00
20650;DHT22;10484;48.736;9.332;2023-02-02T10:24:56;6.70;1.00
20650;DHT22;10484;48.736;9.332;2023-02-02T10:27:36;6.70;1.00
20650;DHT22;10484;48.736;9.332;2023-02-02T10:30:18;6.70;1.00
20650;DHT22;10484;48.736;9.332;2023-02-02T10:32:58;6.70;1.00
20650;DHT22;10484;48.736;9.332;2023-02-02T10:41:03;6.80;1.00
20650;DHT22;10484;48.736;9.332;2023-02-02T10:46:37;6.80;1.00
20650;DHT22;10484;48.736;9.332;2023-02-02T10:49:13;6.80;1.00
20650;DHT22;10484;48.736;9.332;2023-02-02T10:51:39;6.80;1.00
20650;DHT22;10484;48.736;9.332;2023-02-02T10:54:23;6.80;1.00
20650;DHT22;10484;48.736;9.332;2023-02-02T10:56:53;6.80;1.00
20650;DHT22;10484;48.736;9.332;2023-02-02T10:59:26;6.80;1.00
20650;DHT22;10484;48.736;9.332;2023-02-02T11:01:54;6.80;1.00
20650;DHT22;10484;48.736;9.332;2023-02-02T11:04:20;6.80;1.00
20650;DHT22;10484;48.736;9.332;2023-02-02T11:07:04;6.80;1.00
20650;DHT22;10484;48.736;9.332;2023-02-02T11:09:35;6.80;1.00
20650;DHT22;10484;48.736;9.332;2023-02-02T11:12:10;6.80;1.00
20650;DHT22;10484;48.736;9.332;2023-02-02T11:14:50;6.80;1.00
20650;DHT22;10484;48.736;9.332;2023-02-02T11:17:24;6.70;1.00
20650;DHT22;10484;48.736;9.332;2023-02-02T11:19:51;6.70;1.00
20650;DHT22;10484;48.736;9.332;2023-02-02T11:24:54;6.80;1.00
20650;DHT22;10484;48.736;9.332;2023-02-02T11:27:47;6.80;1.00
20650;DHT22;10484;48.736;9.332;2023-02-02T11:30:26;6.80;1.00
20650;DHT22;10484;48.736;9.332;2023-02-02T11:32:52;6.80;1.00
20650;DHT22;10484;48.736;9.332;2023-02-02T11:35:22;6.70;1.00
20650;DHT22;10484;48.736;9.332;2023-02-02T11:41:05;6.80;1.00
20650;DHT22;10484;48.736;9.332;2023-02-02T11:43:53;6.70;1.00
20650;DHT22;10484;48.736;9.332;2023-02-02T11:46:24;6.70;1.00
20650;DHT22;10484;48.736;9.332;2023-02-02T11:49:13;6.70;1.00
20650;DHT22;10484;48.736;9.332;2023-02-02T11:51:41;6.80;1.00
20650;DHT22;10484;48.736;9.332;2023-02-02T11:54:34;6.80;1.00
20650;DHT22;10484;48.736;9.332;2023-02-02T11:57:07;6.80;1.00
20650;DHT22;10484;48.736;9.332;2023-02-02T11:59:42;6.80;1.00
20650;DHT22;10484;48.736;9.332;2023-02-02T12:02:24;6.80;1.00
20650;DHT22;10484;48.736;9.332;2023-02-02T12:04:53;6.80;1.00
20650;DHT22;10484;48.736;9.332;2023-02-02T12:09:48;6.80;1.00
20650;DHT22;10484;48.736;9.332;2023-02-02T12:15:23;6.90;1.00
20650;DHT22;10484;48.736;9.332;2023-02-02T12:18:07;6.90;1.00
20650;DHT22;10484;48.736;9.332;2023-02-02T12:20:57;6.90;1.00
20650;DHT22;10484;48.736;9.332;2023-02-02T12:26:04;6.90;1.00
20650;DHT22;10484;48.736;9.332;2023-02-02T12:34:39;6.90;1.00
20650;DHT22;10484;48.736;9.332;2023-02-02T12:42:43;6.90;1.00
20650;DHT22;10484;48.736;9.332;2023-02-02T12:46:17;7.00;1.00
20650;DHT22;10484;48.736;9.332;2023-02-02T12:56:29;7.00;1.00
20650;DHT22;10484;48.736;9.332;2023-02-02T13:04:43;6.90;1.00
20650;DHT22;10484;48.736;9.332;2023-02-02T13:12:52;7.00;1.00
20650;DHT22;10484;48.736;9.332;2023-02-02T13:15:21;6.90;1.00
20650;DHT22;10484;48.736;9.332;2023-02-02T13:17:56;6.90;1.00
20650;DHT22;10484;48.736;9.332;2023-02-02T13:20:35;6.90;1.00
20650;DHT22;10484;48.736;9.332;2023-02-02T13:25:52;6.90;1.00
20650;DHT22;10484;48.736;9.332;2023-02-02T13:28:45;6.90;1.00
20650;DHT22;10484;48.736;9.332;2023-02-02T13:31:19;6.90;1.00
20650;DHT22;10484;48.736;9.332;2023-02-02T13:34:37;6.90;1.00
20650;DHT22;10484;48.736;9.332;2023-02-02T13:36:45;6.90;1.00
20650;DHT22;10484;48.736;9.332;2023-02-02T13:39:20;6.90;1.00
20650;DHT22;10484;48.736;9.332;2023-02-02T13:41:48;6.90;1.00
20650;DHT22;10484;48.736;9.332;2023-02-02T13:46:58;6.90;1.00
20650;DHT22;10484;48.736;9.332;2023-02-02T13:49:53;6.90;1.00
20650;DHT22;10484;48.736;9.332;2023-02-02T13:55:50;6.90;1.00
20650;DHT22;10484;48.736;9.332;2023-02-02T13:58:39;6.90;1.00
20650;DHT22;10484;48.736;9.332;2023-02-02T14:01:10;6.90;1.00
20650;DHT22;10484;48.736;9.332;2023-02-02T14:03:41;6.90;1.00
20650;DHT22;10484;48.736;9.332;2023-02-02T14:06:14;6.90;1.00
20650;DHT22;10484;48.736;9.332;2023-02-02T14:11:22;7.00;1.00
20650;DHT22;10484;48.736;9.332;2023-02-02T14:13:50;7.00;1.00
20650;DHT22;10484;48.736;9.332;2023-02-02T14:19:04;7.00;1.00
20650;DHT22;10484;48.736;9.332;2023-02-02T14:26:45;7.10;1.00
20650;DHT22;10484;48.736;9.332;2023-02-02T14:32:27;7.10;1.00
20650;DHT22;10484;48.736;9.332;2023-02-02T14:34:52;7.10;1.00
20650;DHT22;10484;48.736;9.332;2023-02-02T14:45:36;7.10;1.00
20650;DHT22;10484;48.736;9.332;2023-02-02T14:50:48;7.10;1.00
20650;DHT22;10484;48.736;9.332;2023-02-02T14:53:26;7.10;1.00
20650;DHT22;10484;48.736;9.332;2023-02-02T14:56:12;7.10;1.00
20650;DHT22;10484;48.736;9.332;2023-02-02T14:58:51;7.10;1.00
20650;DHT22;10484;48.736;9.332;2023-02-02T15:06:42;7.10;1.00
20650;DHT22;10484;48.736;9.332;2023-02-02T15:22:44;7.20;1.00
20650;DHT22;10484;48.736;9.332;2023-02-02T15:25:20;7.20;1.00
20650;DHT22;10484;48.736;9.332;2023-02-02T15:28:07;7.20;1.00
20650;DHT22;10484;48.736;9.332;2023-02-02T15:30:36;7.20;1.00
20650;DHT22;10484;48.736;9.332;2023-02-02T15:33:22;7.20;1.00
20650;DHT22;10484;48.736;9.332;2023-02-02T15:35:48;7.30;1.00
20650;DHT22;10484;48.736;9.332;2023-02-02T15:38:15;7.20;1.00
20650;DHT22;10484;48.736;9.332;2023-02-02T15:40:44;7.30;1.00
20650;DHT22;10484;48.736;9.332;2023-02-02T15:43:11;7.30;1.00
20650;DHT22;10484;48.736;9.332;2023-02-02T15:45:45;7.20;1.00
20650;DHT22;10484;48.736;9.332;2023-02-02T15:48:22;7.20;1.00
20650;DHT22;10484;48.736;9.332;2023-02-02T15:50:49;7.20;1.00
20650;DHT22;10484;48.736;9.332;2023-02-02T15:53:47;7.20;1.00
20650;DHT22;10484;48.736;9.332;2023-02-02T15:58:50;7.20;1.00
20650;DHT22;10484;48.736;9.332;2023-02-02T16:01:19;7.20;1.00
20650;DHT22;10484;48.736;9.332;2023-02-02T16:04:17;7.20;1.00
20650;DHT22;10484;48.736;9.332;2023-02-02T16:06:45;7.20;1.00
20650;DHT22;10484;48.736;9.332;2023-02-02T16:09:26;7.20;1.00
20650;DHT22;10484;48.736;9.332;2023-02-02T16:11:53;7.20;1.00
20650;DHT22;10484;48.736;9.332;2023-02-02T16:14:19;7.20;1.00
20650;DHT22;10484;48.736;9.332;2023-02-02T16:16:46;7.20;1.00
20650;DHT22;10484;48.736;9.332;2023-02-02T16:19:24;7.20;1.00
20650;DHT22;10484;48.736;9.332;2023-02-02T16:21:53;7.20;1.00
20650;DHT22;10484;48.736;9.332;2023-02-02T16:24:29;7.20;1.00
20650;DHT22;10484;48.736;9.332;2023-02-02T16:27:01;7.20;1.00
20650;DHT22;10484;48.736;9.332;2023-02-02T16:29:29;7.20;1.00
20650;DHT22;10484;48.736;9.332;2023-02-02T16:31:55;7.20;1.00
20650;DHT22;10484;48.736;9.332;2023-02-02T16:37:06;7.20;1.00
20650;DHT22;10484;48.736;9.332;2023-02-02T16:39:32;7.20;1.00
20650;DHT22;10484;48.736;9.332;2023-02-02T16:42:32;7.20;1.00
20650;DHT22;10484;48.736;9.332;2023-02-02T16:44:58;7.20;1.00
20650;DHT22;10484;48.736;9.332;2023-02-02T16:55:16;7.30;1.00
20650;DHT22;10484;48.736;9.332;2023-02-02T16:57:44;7.30;1.00
20650;DHT22;10484;48.736;9.332;2023-02-02T17:00:25;7.30;1.00
20650;DHT22;10484;48.736;9.332;2023-02-02T17:03:02;7.20;1.00
20650;DHT22;10484;48.736;9.332;2023-02-02T17:05:31;7.30;1.00
20650;DHT22;10484;48.736;9.332;2023-02-02T17:07:59;7.20;1.00
20650;DHT22;10484;48.736;9.332;2023-02-02T17:13:46;7.20;1.00
20650;DHT22;10484;48.736;9.332;2023-02-02T17:16:16;7.20;1.00
20650;DHT22;10484;48.736;9.332;2023-02-02T17:18:42;7.20;1.00
20650;DHT22;10484;48.736;9.332;2023-02-02T17:21:13;7.20;1.00
20650;DHT22;10484;48.736;9.332;2023-02-02T17:23:39;7.20;1.00
20650;DHT22;10484;48.736;9.332;2023-02-02T17:26:07;7.20;1.00
20650;DHT22;10484;48.736;9.332;2023-02-02T17:28:33;7.20;1.00
20650;DHT22;10484;48.736;9.332;2023-02-02T17:31:03;7.20;1.00
20650;DHT22;10484;48.736;9.332;2023-02-02T17:33:32;7.20;1.00
20650;DHT22;10484;48.736;9.332;2023-02-02T17:35:58;7.20;1.00
20650;DHT22;10484;48.736;9.332;2023-02-02T17:38:25;7.20;1.00
20650;DHT22;10484;48.736;9.332;2023-02-02T17:40:53;7.20;1.00
20650;DHT22;10484;48.736;9.332;2023-02-02T17:43:19;7.10;1.00
20650;DHT22;10484;48.736;9.332;2023-02-02T17:45:45;7.10;1.00
20650;DHT22;10484;48.736;9.332;2023-02-02T17:48:12;7.20;1.00
20650;DHT22;10484;48.736;9.332;2023-02-02T17:50:39;7.10;1.00
20650;DHT22;10484;48.736;9.332;2023-02-02T17:53:05;7.20;1.00
20650;DHT22;10484;48.736;9.332;2023-02-02T17:55:35;7.20;1.00
20650;DHT22;10484;48.736;9.332;2023-02-02T17:58:02;7.20;1.00
20650;DHT22;10484;48.736;9.332;2023-02-02T18:00:28;7.20;1.00
20650;DHT22;10484;48.736;9.332;2023-02-02T18:03:00;7.20;1.00
20650;DHT22;10484;48.736;9.332;2023-02-02T18:05:32;7.20;1.00
20650;DHT22;10484;48.736;9.332;2023-02-02T18:07:57;7.20;1.00
20650;DHT22;10484;48.736;9.332;2023-02-02T18:10:23;7.20;1.00
20650;DHT22;10484;48.736;9.332;2023-02-02T18:12:50;7.20;1.00
20650;DHT22;10484;48.736;9.332;2023-02-02T18:15:16;7.30;1.00
20650;DHT22;10484;48.736;9.332;2023-02-02T18:17:41;7.20;1.00
20650;DHT22;10484;48.736;9.332;2023-02-02T18:20:08;7.20;1.00
20650;DHT22;10484;48.736;9.332;2023-02-02T18:22:34;7.20;1.00
20650;DHT22;10484;48.736;9.332;2023-02-02T18:25:00;7.20;1.00
20650;DHT22;10484;48.736;9.332;2023-02-02T18:27:28;7.20;1.00
20650;DHT22;10484;48.736;9.332;2023-02-02T18:29:54;7.20;1.00
20650;DHT22;10484;48.736;9.332;2023-02-02T18:32:19;7.20;1.00
20650;DHT22;10484;48.736;9.332;2023-02-02T18:34:45;7.20;1.00
20650;DHT22;10484;48.736;9.332;2023-02-02T18:37:16;7.20;1.00
20650;DHT22;10484;48.736;9.332;2023-02-02T18:39:41;7.20;1.00
20650;DHT22;10484;48.736;9.332;2023-02-02T18:42:07;7.20;1.00
20650;DHT22;10484;48.736;9.332;2023-02-02T18:44:32;7.20;1.00
20650;DHT22;10484;48.736;9.332;2023-02-02T18:47:00;7.20;1.00
20650;DHT22;10484;48.736;9.332;2023-02-02T18:49:26;7.20;1.00
20650;DHT22;10484;48.736;9.332;2023-02-02T18:51:51;7.20;1.00
20650;DHT22;10484;48.736;9.332;2023-02-02T18:54:17;7.20;1.00